sensor_id;sensor_type;location;lat;lon;timestamp;P1;durP1;ratioP1;P2;durP2;ratioP2
33160;SDS011;19522;45.656;11.302;2023-01-16T00:01:45;27.85;;;21.50;;
33160;SDS011;19522;45.656;11.302;2023-01-16T00:04:11;25.98;;;20.08;;
33160;SDS011;19522;45.656;11.302;2023-01-16T00:06:36;26.58;;;19.58;;
33160;SDS011;19522;45.656;11.302;2023-01-16T00:09:03;28.67;;;20.98;;
33160;SDS011;19522;45.656;11.302;2023-01-16T00:11:29;28.17;;;20.67;;
33160;SDS011;19522;45.656;11.302;2023-01-16T00:13:55;25.58;;;18.98;;
33160;SDS011;19522;45.656;11.302;2023-01-16T00:16:21;30.27;;;22.75;;
33160;SDS011;19522;45.656;11.302;2023-01-16T00:18:46;29.42;;;21.92;;
33160;SDS011;19522;45.656;11.302;2023-01-16T00:21:12;24.90;;;19.60;;
33160;SDS011;19522;45.656;11.302;2023-01-16T00:23:37;29.85;;;21.38;;
33160;SDS011;19522;45.656;11.302;2023-01-16T00:26:06;29.88;;;21.13;;
33160;SDS011;19522;45.656;11.302;2023-01-16T00:28:34;24.02;;;19.15;;
33160;SDS011;19522;45.656;11.302;2023-01-16T00:31:02;23.67;;;18.45;;
33160;SDS011;19522;45.656;11.302;2023-01-16T00:33:29;21.23;;;17.05;;
33160;SDS011;19522;45.656;11.302;2023-01-16T00:35:55;26.40;;;19.73;;
33160;SDS011;19522;45.656;11.302;2023-01-16T00:38:21;26.23;;;19.55;;
33160;SDS011;19522;45.656;11.302;2023-01-16T00:40:46;25.67;;;19.40;;
33160;SDS011;19522;45.656;11.302;2023-01-16T00:43:12;24.98;;;18.27;;
33160;SDS011;19522;45.656;11.302;2023-01-16T00:45:37;22.77;;;16.13;;
33160;SDS011;19522;45.656;11.302;2023-01-16T00:48:04;25.30;;;17.67;;
33160;SDS011;19522;45.656;11.302;2023-01-16T00:50:30;22.92;;;18.08;;
33160;SDS011;19522;45.656;11.302;2023-01-16T00:52:56;26.60;;;19.92;;
33160;SDS011;19522;45.656;11.302;2023-01-16T00:55:21;24.27;;;18.30;;
33160;SDS011;19522;45.656;11.302;2023-01-16T00:57:47;24.70;;;18.70;;
33160;SDS011;19522;45.656;11.302;2023-01-16T01:00:12;21.85;;;15.95;;
33160;SDS011;19522;45.656;11.302;2023-01-16T01:02:38;17.88;;;13.60;;
33160;SDS011;19522;45.656;11.302;2023-01-16T01:05:03;18.85;;;14.48;;
33160;SDS011;19522;45.656;11.302;2023-01-16T01:07:31;22.10;;;16.50;;
33160;SDS011;19522;45.656;11.302;2023-01-16T01:09:56;22.65;;;17.40;;
33160;SDS011;19522;45.656;11.302;2023-01-16T01:12:22;27.30;;;18.60;;
33160;SDS011;19522;45.656;11.302;2023-01-16T01:14:47;22.40;;;17.13;;
33160;SDS011;19522;45.656;11.302;2023-01-16T01:17:13;23.17;;;17.77;;
33160;SDS011;19522;45.656;11.302;2023-01-16T01:19:38;25.83;;;18.73;;
33160;SDS011;19522;45.656;11.302;2023-01-16T01:22:04;29.75;;;21.55;;
33160;SDS011;19522;45.656;11.302;2023-01-16T01:24:29;27.50;;;18.60;;
33160;SDS011;19522;45.656;11.302;2023-01-16T01:26:55;28.08;;;19.38;;
33160;SDS011;19522;45.656;11.302;2023-01-16T01:29:20;39.53;;;26.10;;
33160;SDS011;19522;45.656;11.302;2023-01-16T01:31:46;56.63;;;36.90;;
33160;SDS011;19522;45.656;11.302;2023-01-16T01:34:11;55.28;;;35.85;;
33160;SDS011;19522;45.656;11.302;2023-01-16T01:36:37;53.65;;;35.65;;
33160;SDS011;19522;45.656;11.302;2023-01-16T01:39:02;52.65;;;34.45;;
33160;SDS011;19522;45.656;11.302;2023-01-16T01:41:28;51.42;;;33.03;;
33160;SDS011;19522;45.656;11.302;2023-01-16T01:43:54;50.00;;;33.03;;
33160;SDS011;19522;45.656;11.302;2023-01-16T01:46:26;49.05;;;33.53;;
33160;SDS011;19522;45.656;11.302;2023-01-16T01:49:04;46.70;;;29.50;;
33160;SDS011;19522;45.656;11.302;2023-01-16T01:51:37;41.90;;;27.05;;
33160;SDS011;19522;45.656;11.302;2023-01-16T01:54:10;43.03;;;28.65;;
33160;SDS011;19522;45.656;11.302;2023-01-16T01:56:45;40.17;;;26.48;;
33160;SDS011;19522;45.656;11.302;2023-01-16T01:59:23;42.63;;;27.52;;
33160;SDS011;19522;45.656;11.302;2023-01-16T02:01:53;37.55;;;25.10;;
33160;SDS011;19522;45.656;11.302;2023-01-16T02:04:22;38.42;;;25.20;;
33160;SDS011;19522;45.656;11.302;2023-01-16T02:06:51;40.15;;;27.00;;
33160;SDS011;19522;45.656;11.302;2023-01-16T02:09:20;38.50;;;25.10;;
33160;SDS011;19522;45.656;11.302;2023-01-16T02:11:53;35.10;;;23.70;;
33160;SDS011;19522;45.656;11.302;2023-01-16T02:14:21;36.33;;;25.00;;
33160;SDS011;19522;45.656;11.302;2023-01-16T02:16:48;39.70;;;27.13;;
33160;SDS011;19522;45.656;11.302;2023-01-16T02:33:42;38.67;;;25.88;;
33160;SDS011;19522;45.656;11.302;2023-01-16T02:39:00;38.08;;;24.00;;
33160;SDS011;19522;45.656;11.302;2023-01-16T02:44:52;34.40;;;23.38;;
33160;SDS011;19522;45.656;11.302;2023-01-16T02:50:32;33.78;;;23.90;;
33160;SDS011;19522;45.656;11.302;2023-01-16T02:53:10;34.63;;;24.02;;
33160;SDS011;19522;45.656;11.302;2023-01-16T02:58:15;33.03;;;22.35;;
33160;SDS011;19522;45.656;11.302;2023-01-16T03:00:53;30.45;;;21.33;;
33160;SDS011;19522;45.656;11.302;2023-01-16T03:03:39;27.05;;;19.02;;
33160;SDS011;19522;45.656;11.302;2023-01-16T03:06:13;28.85;;;20.45;;
33160;SDS011;19522;45.656;11.302;2023-01-16T03:08:44;31.70;;;22.42;;
33160;SDS011;19522;45.656;11.302;2023-01-16T03:11:15;33.08;;;23.05;;
33160;SDS011;19522;45.656;11.302;2023-01-16T03:16:37;32.90;;;21.63;;
33160;SDS011;19522;45.656;11.302;2023-01-16T03:19:09;30.08;;;20.00;;
33160;SDS011;19522;45.656;11.302;2023-01-16T03:27:20;26.05;;;18.77;;
33160;SDS011;19522;45.656;11.302;2023-01-16T03:29:55;25.42;;;17.55;;
33160;SDS011;19522;45.656;11.302;2023-01-16T03:32:34;25.50;;;17.85;;
33160;SDS011;19522;45.656;11.302;2023-01-16T03:37:35;17.35;;;13.73;;
33160;SDS011;19522;45.656;11.302;2023-01-16T03:40:07;15.90;;;11.95;;
33160;SDS011;19522;45.656;11.302;2023-01-16T03:42:42;15.45;;;11.50;;
33160;SDS011;19522;45.656;11.302;2023-01-16T03:45:38;15.95;;;11.77;;
33160;SDS011;19522;45.656;11.302;2023-01-16T03:50:56;18.67;;;14.05;;
33160;SDS011;19522;45.656;11.302;2023-01-16T03:53:30;19.17;;;14.18;;
33160;SDS011;19522;45.656;11.302;2023-01-16T03:56:04;17.60;;;12.25;;
33160;SDS011;19522;45.656;11.302;2023-01-16T03:58:45;15.93;;;11.40;;
33160;SDS011;19522;45.656;11.302;2023-01-16T04:01:34;16.23;;;11.93;;
33160;SDS011;19522;45.656;11.302;2023-01-16T04:07:33;20.20;;;14.07;;
33160;SDS011;19522;45.656;11.302;2023-01-16T04:09:42;17.70;;;12.90;;
33160;SDS011;19522;45.656;11.302;2023-01-16T04:12:17;14.65;;;11.10;;
33160;SDS011;19522;45.656;11.302;2023-01-16T04:14:46;10.40;;;9.07;;
33160;SDS011;19522;45.656;11.302;2023-01-16T04:17:15;12.32;;;10.20;;
33160;SDS011;19522;45.656;11.302;2023-01-16T04:19:42;12.98;;;9.00;;
33160;SDS011;19522;45.656;11.302;2023-01-16T04:22:09;12.07;;;9.02;;
33160;SDS011;19522;45.656;11.302;2023-01-16T04:24:46;13.70;;;10.77;;
33160;SDS011;19522;45.656;11.302;2023-01-16T04:27:13;14.75;;;10.52;;
33160;SDS011;19522;45.656;11.302;2023-01-16T04:29:38;15.80;;;10.80;;
33160;SDS011;19522;45.656;11.302;2023-01-16T04:32:04;15.80;;;11.48;;
33160;SDS011;19522;45.656;11.302;2023-01-16T04:34:29;16.30;;;10.93;;
33160;SDS011;19522;45.656;11.302;2023-01-16T04:36:55;15.20;;;11.05;;
33160;SDS011;19522;45.656;11.302;2023-01-16T04:39:20;16.23;;;12.15;;
33160;SDS011;19522;45.656;11.302;2023-01-16T04:41:46;15.63;;;11.75;;
33160;SDS011;19522;45.656;11.302;2023-01-16T04:44:15;15.43;;;10.93;;
33160;SDS011;19522;45.656;11.302;2023-01-16T04:46:42;17.23;;;11.88;;
33160;SDS011;19522;45.656;11.302;2023-01-16T04:49:07;15.43;;;11.80;;
33160;SDS011;19522;45.656;11.302;2023-01-16T04:51:34;15.13;;;11.43;;
33160;SDS011;19522;45.656;11.302;2023-01-16T04:54:00;17.23;;;12.35;;
33160;SDS011;19522;45.656;11.302;2023-01-16T04:56:26;17.38;;;12.00;;
33160;SDS011;19522;45.656;11.302;2023-01-16T04:58:52;17.67;;;12.73;;
33160;SDS011;19522;45.656;11.302;2023-01-16T05:01:18;16.23;;;11.43;;
33160;SDS011;19522;45.656;11.302;2023-01-16T05:03:45;16.33;;;12.63;;
33160;SDS011;19522;45.656;11.302;2023-01-16T05:06:11;16.92;;;13.13;;
33160;SDS011;19522;45.656;11.302;2023-01-16T05:08:37;16.05;;;12.88;;
33160;SDS011;19522;45.656;11.302;2023-01-16T05:11:02;16.67;;;12.50;;
33160;SDS011;19522;45.656;11.302;2023-01-16T05:13:28;15.57;;;11.50;;
33160;SDS011;19522;45.656;11.302;2023-01-16T05:15:54;16.25;;;11.43;;
33160;SDS011;19522;45.656;11.302;2023-01-16T05:18:20;14.48;;;11.45;;
33160;SDS011;19522;45.656;11.302;2023-01-16T05:20:45;14.23;;;11.05;;
33160;SDS011;19522;45.656;11.302;2023-01-16T05:23:11;16.58;;;11.55;;
33160;SDS011;19522;45.656;11.302;2023-01-16T05:25:37;14.48;;;10.95;;
33160;SDS011;19522;45.656;11.302;2023-01-16T05:28:03;15.65;;;11.60;;
33160;SDS011;19522;45.656;11.302;2023-01-16T05:30:29;13.77;;;10.82;;
33160;SDS011;19522;45.656;11.302;2023-01-16T05:32:54;13.73;;;11.35;;
33160;SDS011;19522;45.656;11.302;2023-01-16T05:35:20;12.38;;;9.85;;
33160;SDS011;19522;45.656;11.302;2023-01-16T05:37:46;12.07;;;10.30;;
33160;SDS011;19522;45.656;11.302;2023-01-16T05:40:11;12.18;;;9.80;;
33160;SDS011;19522;45.656;11.302;2023-01-16T05:42:38;11.82;;;9.10;;
33160;SDS011;19522;45.656;11.302;2023-01-16T05:45:03;11.68;;;8.80;;
33160;SDS011;19522;45.656;11.302;2023-01-16T05:47:29;10.00;;;8.10;;
33160;SDS011;19522;45.656;11.302;2023-01-16T05:49:55;12.27;;;8.05;;
33160;SDS011;19522;45.656;11.302;2023-01-16T05:52:24;8.38;;;6.50;;
33160;SDS011;19522;45.656;11.302;2023-01-16T05:54:51;8.38;;;6.25;;
33160;SDS011;19522;45.656;11.302;2023-01-16T05:57:18;8.32;;;6.63;;
33160;SDS011;19522;45.656;11.302;2023-01-16T05:59:46;9.30;;;6.90;;
33160;SDS011;19522;45.656;11.302;2023-01-16T06:02:13;8.35;;;6.88;;
33160;SDS011;19522;45.656;11.302;2023-01-16T06:04:38;7.68;;;6.60;;
33160;SDS011;19522;45.656;11.302;2023-01-16T06:07:04;7.78;;;6.43;;
33160;SDS011;19522;45.656;11.302;2023-01-16T06:09:30;6.72;;;5.65;;
33160;SDS011;19522;45.656;11.302;2023-01-16T06:11:55;9.32;;;6.38;;
33160;SDS011;19522;45.656;11.302;2023-01-16T06:14:20;10.30;;;8.02;;
33160;SDS011;19522;45.656;11.302;2023-01-16T06:16:46;12.48;;;9.05;;
33160;SDS011;19522;45.656;11.302;2023-01-16T06:19:11;11.45;;;7.85;;
33160;SDS011;19522;45.656;11.302;2023-01-16T06:21:37;12.63;;;8.40;;
33160;SDS011;19522;45.656;11.302;2023-01-16T06:24:02;10.25;;;7.78;;
33160;SDS011;19522;45.656;11.302;2023-01-16T06:26:28;12.95;;;9.15;;
33160;SDS011;19522;45.656;11.302;2023-01-16T06:28:54;13.60;;;9.60;;
33160;SDS011;19522;45.656;11.302;2023-01-16T06:31:21;11.80;;;9.15;;
33160;SDS011;19522;45.656;11.302;2023-01-16T06:33:47;10.65;;;8.00;;
33160;SDS011;19522;45.656;11.302;2023-01-16T06:36:12;14.13;;;10.73;;
33160;SDS011;19522;45.656;11.302;2023-01-16T06:38:38;14.95;;;10.88;;
33160;SDS011;19522;45.656;11.302;2023-01-16T06:41:03;12.68;;;9.25;;
33160;SDS011;19522;45.656;11.302;2023-01-16T06:43:29;13.82;;;9.30;;
33160;SDS011;19522;45.656;11.302;2023-01-16T06:45:55;13.02;;;10.60;;
33160;SDS011;19522;45.656;11.302;2023-01-16T06:48:21;15.65;;;10.48;;
33160;SDS011;19522;45.656;11.302;2023-01-16T06:50:47;13.25;;;10.13;;
33160;SDS011;19522;45.656;11.302;2023-01-16T06:53:13;15.18;;;11.15;;
33160;SDS011;19522;45.656;11.302;2023-01-16T06:55:39;13.40;;;10.35;;
33160;SDS011;19522;45.656;11.302;2023-01-16T06:58:06;13.35;;;10.23;;
33160;SDS011;19522;45.656;11.302;2023-01-16T07:00:32;12.00;;;9.38;;
33160;SDS011;19522;45.656;11.302;2023-01-16T07:02:58;11.82;;;10.07;;
33160;SDS011;19522;45.656;11.302;2023-01-16T07:05:24;11.85;;;9.32;;
33160;SDS011;19522;45.656;11.302;2023-01-16T07:07:51;11.90;;;9.32;;
33160;SDS011;19522;45.656;11.302;2023-01-16T07:10:17;12.02;;;9.00;;
33160;SDS011;19522;45.656;11.302;2023-01-16T07:12:45;11.02;;;8.48;;
33160;SDS011;19522;45.656;11.302;2023-01-16T07:15:12;12.35;;;8.63;;
33160;SDS011;19522;45.656;11.302;2023-01-16T07:17:56;10.18;;;8.38;;
33160;SDS011;19522;45.656;11.302;2023-01-16T07:20:41;11.07;;;8.23;;
33160;SDS011;19522;45.656;11.302;2023-01-16T07:23:27;11.38;;;9.18;;
33160;SDS011;19522;45.656;11.302;2023-01-16T07:25:57;20.30;;;12.70;;
33160;SDS011;19522;45.656;11.302;2023-01-16T07:28:26;15.65;;;11.93;;
33160;SDS011;19522;45.656;11.302;2023-01-16T07:30:53;14.68;;;12.60;;
33160;SDS011;19522;45.656;11.302;2023-01-16T07:33:19;12.38;;;9.98;;
33160;SDS011;19522;45.656;11.302;2023-01-16T07:35:45;21.30;;;16.67;;
33160;SDS011;19522;45.656;11.302;2023-01-16T07:38:10;17.42;;;12.88;;
33160;SDS011;19522;45.656;11.302;2023-01-16T07:40:36;18.08;;;13.52;;
33160;SDS011;19522;45.656;11.302;2023-01-16T07:43:02;19.80;;;14.43;;
33160;SDS011;19522;45.656;11.302;2023-01-16T07:45:28;18.75;;;14.07;;
33160;SDS011;19522;45.656;11.302;2023-01-16T07:47:53;17.02;;;13.10;;
33160;SDS011;19522;45.656;11.302;2023-01-16T07:50:19;19.48;;;13.73;;
33160;SDS011;19522;45.656;11.302;2023-01-16T07:52:44;12.40;;;9.02;;
33160;SDS011;19522;45.656;11.302;2023-01-16T07:55:11;8.52;;;5.93;;
33160;SDS011;19522;45.656;11.302;2023-01-16T07:57:37;8.65;;;6.53;;
33160;SDS011;19522;45.656;11.302;2023-01-16T08:00:05;7.93;;;5.30;;
33160;SDS011;19522;45.656;11.302;2023-01-16T08:02:32;7.00;;;5.50;;
33160;SDS011;19522;45.656;11.302;2023-01-16T08:04:57;5.75;;;4.47;;
33160;SDS011;19522;45.656;11.302;2023-01-16T08:07:23;6.53;;;3.83;;
33160;SDS011;19522;45.656;11.302;2023-01-16T08:09:48;4.82;;;3.35;;
33160;SDS011;19522;45.656;11.302;2023-01-16T08:12:14;5.32;;;3.20;;
33160;SDS011;19522;45.656;11.302;2023-01-16T08:14:39;3.47;;;2.40;;
33160;SDS011;19522;45.656;11.302;2023-01-16T08:17:05;2.95;;;2.40;;
33160;SDS011;19522;45.656;11.302;2023-01-16T08:19:30;2.13;;;1.35;;
33160;SDS011;19522;45.656;11.302;2023-01-16T08:21:56;2.35;;;1.60;;
33160;SDS011;19522;45.656;11.302;2023-01-16T08:24:21;2.08;;;1.30;;
33160;SDS011;19522;45.656;11.302;2023-01-16T08:26:49;2.25;;;1.25;;
33160;SDS011;19522;45.656;11.302;2023-01-16T08:29:14;3.00;;;1.30;;
33160;SDS011;19522;45.656;11.302;2023-01-16T08:31:40;1.83;;;1.30;;
33160;SDS011;19522;45.656;11.302;2023-01-16T08:34:05;2.10;;;1.60;;
33160;SDS011;19522;45.656;11.302;2023-01-16T08:36:31;3.40;;;1.95;;
33160;SDS011;19522;45.656;11.302;2023-01-16T08:38:56;2.03;;;1.58;;
33160;SDS011;19522;45.656;11.302;2023-01-16T08:41:22;2.65;;;1.60;;
33160;SDS011;19522;45.656;11.302;2023-01-16T08:44:07;2.37;;;1.33;;
33160;SDS011;19522;45.656;11.302;2023-01-16T08:47:05;5.43;;;1.65;;
33160;SDS011;19522;45.656;11.302;2023-01-16T08:50:13;2.35;;;1.70;;
33160;SDS011;19522;45.656;11.302;2023-01-16T08:52:58;2.70;;;2.20;;
33160;SDS011;19522;45.656;11.302;2023-01-16T08:55:24;2.65;;;2.30;;
33160;SDS011;19522;45.656;11.302;2023-01-16T08:57:49;3.00;;;2.30;;
33160;SDS011;19522;45.656;11.302;2023-01-16T09:00:15;3.00;;;2.70;;
33160;SDS011;19522;45.656;11.302;2023-01-16T09:02:41;3.83;;;2.53;;
33160;SDS011;19522;45.656;11.302;2023-01-16T09:05:06;3.40;;;2.58;;
33160;SDS011;19522;45.656;11.302;2023-01-16T09:07:32;4.07;;;3.10;;
33160;SDS011;19522;45.656;11.302;2023-01-16T09:09:57;5.55;;;3.92;;
33160;SDS011;19522;45.656;11.302;2023-01-16T09:12:23;8.05;;;6.15;;
33160;SDS011;19522;45.656;11.302;2023-01-16T09:15:07;7.53;;;5.10;;
33160;SDS011;19522;45.656;11.302;2023-01-16T09:17:33;8.15;;;5.47;;
33160;SDS011;19522;45.656;11.302;2023-01-16T09:19:58;8.15;;;5.72;;
33160;SDS011;19522;45.656;11.302;2023-01-16T09:22:25;8.90;;;5.75;;
33160;SDS011;19522;45.656;11.302;2023-01-16T09:24:52;8.40;;;5.43;;
33160;SDS011;19522;45.656;11.302;2023-01-16T09:27:18;7.40;;;5.82;;
33160;SDS011;19522;45.656;11.302;2023-01-16T09:29:44;8.77;;;5.95;;
33160;SDS011;19522;45.656;11.302;2023-01-16T09:32:10;7.95;;;5.30;;
33160;SDS011;19522;45.656;11.302;2023-01-16T09:34:36;6.65;;;4.60;;
33160;SDS011;19522;45.656;11.302;2023-01-16T09:37:21;6.15;;;4.20;;
33160;SDS011;19522;45.656;11.302;2023-01-16T09:39:47;6.95;;;4.93;;
33160;SDS011;19522;45.656;11.302;2023-01-16T09:45:18;10.40;;;8.27;;
33160;SDS011;19522;45.656;11.302;2023-01-16T09:47:49;6.40;;;5.20;;
33160;SDS011;19522;45.656;11.302;2023-01-16T09:50:27;7.43;;;5.43;;
33160;SDS011;19522;45.656;11.302;2023-01-16T09:52:57;8.25;;;6.22;;
33160;SDS011;19522;45.656;11.302;2023-01-16T09:55:46;7.25;;;4.70;;
33160;SDS011;19522;45.656;11.302;2023-01-16T09:58:32;6.22;;;4.07;;
33160;SDS011;19522;45.656;11.302;2023-01-16T10:01:14;6.03;;;4.15;;
33160;SDS011;19522;45.656;11.302;2023-01-16T10:03:44;5.85;;;3.95;;
33160;SDS011;19522;45.656;11.302;2023-01-16T10:14:25;4.38;;;3.00;;
33160;SDS011;19522;45.656;11.302;2023-01-16T10:17:04;3.08;;;2.15;;
33160;SDS011;19522;45.656;11.302;2023-01-16T10:25:21;4.83;;;3.07;;
33160;SDS011;19522;45.656;11.302;2023-01-16T10:28:03;4.15;;;3.25;;
33160;SDS011;19522;45.656;11.302;2023-01-16T10:30:40;106.50;;;52.95;;
33160;SDS011;19522;45.656;11.302;2023-01-16T10:33:26;32.97;;;15.82;;
33160;SDS011;19522;45.656;11.302;2023-01-16T10:35:58;9.25;;;3.28;;
33160;SDS011;19522;45.656;11.302;2023-01-16T10:41:08;2.15;;;1.55;;
33160;SDS011;19522;45.656;11.302;2023-01-16T10:44:01;4.65;;;2.00;;
33160;SDS011;19522;45.656;11.302;2023-01-16T10:46:49;3.35;;;2.03;;
33160;SDS011;19522;45.656;11.302;2023-01-16T10:52:00;5.53;;;4.28;;
33160;SDS011;19522;45.656;11.302;2023-01-16T10:54:29;4.40;;;3.22;;
33160;SDS011;19522;45.656;11.302;2023-01-16T10:56:55;4.53;;;3.00;;
33160;SDS011;19522;45.656;11.302;2023-01-16T10:59:23;4.10;;;2.88;;
33160;SDS011;19522;45.656;11.302;2023-01-16T11:02:50;3.47;;;2.47;;
33160;SDS011;19522;45.656;11.302;2023-01-16T11:10:35;6.07;;;4.00;;
33160;SDS011;19522;45.656;11.302;2023-01-16T11:13:00;7.22;;;5.38;;
33160;SDS011;19522;45.656;11.302;2023-01-16T11:16:05;7.00;;;4.63;;
33160;SDS011;19522;45.656;11.302;2023-01-16T11:19:21;5.35;;;3.83;;
33160;SDS011;19522;45.656;11.302;2023-01-16T11:21:54;5.40;;;3.90;;
33160;SDS011;19522;45.656;11.302;2023-01-16T11:24:30;5.07;;;4.15;;
33160;SDS011;19522;45.656;11.302;2023-01-16T11:26:58;6.25;;;4.10;;
33160;SDS011;19522;45.656;11.302;2023-01-16T11:29:25;4.97;;;3.40;;
33160;SDS011;19522;45.656;11.302;2023-01-16T11:31:56;5.65;;;3.72;;
33160;SDS011;19522;45.656;11.302;2023-01-16T11:34:24;6.00;;;4.00;;
33160;SDS011;19522;45.656;11.302;2023-01-16T11:36:52;7.13;;;4.03;;
33160;SDS011;19522;45.656;11.302;2023-01-16T11:39:23;6.80;;;4.13;;
33160;SDS011;19522;45.656;11.302;2023-01-16T11:41:53;6.22;;;4.03;;
33160;SDS011;19522;45.656;11.302;2023-01-16T11:44:39;5.18;;;4.20;;
33160;SDS011;19522;45.656;11.302;2023-01-16T11:47:26;5.47;;;3.65;;
33160;SDS011;19522;45.656;11.302;2023-01-16T11:49:52;6.95;;;4.47;;
33160;SDS011;19522;45.656;11.302;2023-01-16T11:52:22;6.65;;;4.68;;
33160;SDS011;19522;45.656;11.302;2023-01-16T11:54:59;10.70;;;6.78;;
33160;SDS011;19522;45.656;11.302;2023-01-16T12:12:00;8.82;;;6.00;;
33160;SDS011;19522;45.656;11.302;2023-01-16T12:17:34;8.48;;;6.63;;
33160;SDS011;19522;45.656;11.302;2023-01-16T12:25:39;19.30;;;13.05;;
33160;SDS011;19522;45.656;11.302;2023-01-16T12:28:25;10.68;;;8.32;;
33160;SDS011;19522;45.656;11.302;2023-01-16T12:45:45;13.68;;;10.48;;
33160;SDS011;19522;45.656;11.302;2023-01-16T12:48:22;15.52;;;11.32;;
33160;SDS011;19522;45.656;11.302;2023-01-16T12:59:18;16.95;;;11.88;;
33160;SDS011;19522;45.656;11.302;2023-01-16T13:01:48;17.38;;;12.10;;
33160;SDS011;19522;45.656;11.302;2023-01-16T13:04:22;15.93;;;12.43;;
33160;SDS011;19522;45.656;11.302;2023-01-16T13:07:02;18.13;;;13.48;;
33160;SDS011;19522;45.656;11.302;2023-01-16T13:09:36;22.15;;;15.95;;
33160;SDS011;19522;45.656;11.302;2023-01-16T13:15:00;14.80;;;11.57;;
33160;SDS011;19522;45.656;11.302;2023-01-16T13:20:24;11.00;;;8.55;;
33160;SDS011;19522;45.656;11.302;2023-01-16T13:22:55;11.15;;;7.45;;
33160;SDS011;19522;45.656;11.302;2023-01-16T13:25:35;10.23;;;6.45;;
33160;SDS011;19522;45.656;11.302;2023-01-16T13:34:25;9.65;;;6.57;;
33160;SDS011;19522;45.656;11.302;2023-01-16T13:42:32;7.72;;;5.63;;
33160;SDS011;19522;45.656;11.302;2023-01-16T13:45:15;9.35;;;6.05;;
33160;SDS011;19522;45.656;11.302;2023-01-16T13:48:07;8.90;;;6.77;;
33160;SDS011;19522;45.656;11.302;2023-01-16T13:50:36;8.90;;;6.00;;
33160;SDS011;19522;45.656;11.302;2023-01-16T13:53:02;8.82;;;7.18;;
33160;SDS011;19522;45.656;11.302;2023-01-16T13:55:36;10.68;;;8.02;;
33160;SDS011;19522;45.656;11.302;2023-01-16T14:00:39;11.27;;;8.15;;
33160;SDS011;19522;45.656;11.302;2023-01-16T14:17:12;11.85;;;8.23;;
33160;SDS011;19522;45.656;11.302;2023-01-16T14:19:49;10.15;;;7.45;;
33160;SDS011;19522;45.656;11.302;2023-01-16T14:22:18;6.50;;;4.82;;
33160;SDS011;19522;45.656;11.302;2023-01-16T14:24:47;4.20;;;3.03;;
33160;SDS011;19522;45.656;11.302;2023-01-16T14:27:17;5.45;;;3.65;;
33160;SDS011;19522;45.656;11.302;2023-01-16T14:29:55;6.03;;;4.63;;
33160;SDS011;19522;45.656;11.302;2023-01-16T14:32:30;5.28;;;3.53;;
33160;SDS011;19522;45.656;11.302;2023-01-16T14:34:58;5.65;;;4.32;;
33160;SDS011;19522;45.656;11.302;2023-01-16T14:37:39;6.65;;;4.68;;
33160;SDS011;19522;45.656;11.302;2023-01-16T14:45:27;3.07;;;1.90;;
33160;SDS011;19522;45.656;11.302;2023-01-16T14:53:58;6.57;;;3.97;;
33160;SDS011;19522;45.656;11.302;2023-01-16T14:56:43;4.97;;;4.10;;
33160;SDS011;19522;45.656;11.302;2023-01-16T15:04:53;4.35;;;3.63;;
33160;SDS011;19522;45.656;11.302;2023-01-16T15:07:25;4.80;;;3.55;;
33160;SDS011;19522;45.656;11.302;2023-01-16T15:09:58;4.72;;;3.40;;
33160;SDS011;19522;45.656;11.302;2023-01-16T15:12:35;4.78;;;3.58;;
33160;SDS011;19522;45.656;11.302;2023-01-16T15:15:02;5.43;;;3.78;;
33160;SDS011;19522;45.656;11.302;2023-01-16T15:17:35;4.05;;;3.28;;
33160;SDS011;19522;45.656;11.302;2023-01-16T15:20:26;5.38;;;3.92;;
33160;SDS011;19522;45.656;11.302;2023-01-16T15:23:44;7.18;;;4.13;;
33160;SDS011;19522;45.656;11.302;2023-01-16T15:31:43;11.32;;;7.50;;
33160;SDS011;19522;45.656;11.302;2023-01-16T15:36:44;10.98;;;6.18;;
33160;SDS011;19522;45.656;11.302;2023-01-16T15:39:25;8.75;;;6.22;;
33160;SDS011;19522;45.656;11.302;2023-01-16T15:41:58;8.18;;;5.57;;
33160;SDS011;19522;45.656;11.302;2023-01-16T15:44:43;8.02;;;5.80;;
33160;SDS011;19522;45.656;11.302;2023-01-16T15:47:35;6.25;;;5.13;;
33160;SDS011;19522;45.656;11.302;2023-01-16T15:52:52;7.32;;;5.28;;
33160;SDS011;19522;45.656;11.302;2023-01-16T15:55:22;7.78;;;5.55;;
33160;SDS011;19522;45.656;11.302;2023-01-16T15:57:55;7.70;;;5.38;;
33160;SDS011;19522;45.656;11.302;2023-01-16T16:02:52;7.35;;;4.90;;
33160;SDS011;19522;45.656;11.302;2023-01-16T16:05:25;5.70;;;4.22;;
33160;SDS011;19522;45.656;11.302;2023-01-16T16:07:52;4.82;;;3.92;;
33160;SDS011;19522;45.656;11.302;2023-01-16T16:10:18;8.00;;;5.40;;
33160;SDS011;19522;45.656;11.302;2023-01-16T16:13:04;6.22;;;4.68;;
33160;SDS011;19522;45.656;11.302;2023-01-16T16:15:30;6.75;;;4.95;;
33160;SDS011;19522;45.656;11.302;2023-01-16T16:18:16;6.75;;;5.63;;
33160;SDS011;19522;45.656;11.302;2023-01-16T16:20:44;8.65;;;7.20;;
33160;SDS011;19522;45.656;11.302;2023-01-16T16:25:37;12.02;;;9.45;;
33160;SDS011;19522;45.656;11.302;2023-01-16T16:30:42;16.35;;;12.13;;
33160;SDS011;19522;45.656;11.302;2023-01-16T16:33:17;22.48;;;15.98;;
33160;SDS011;19522;45.656;11.302;2023-01-16T16:35:50;33.17;;;20.98;;
33160;SDS011;19522;45.656;11.302;2023-01-16T16:40:48;12.05;;;8.82;;
33160;SDS011;19522;45.656;11.302;2023-01-16T16:48:47;12.77;;;9.38;;
33160;SDS011;19522;45.656;11.302;2023-01-16T16:51:31;11.32;;;8.15;;
33160;SDS011;19522;45.656;11.302;2023-01-16T16:54:08;10.87;;;8.30;;
33160;SDS011;19522;45.656;11.302;2023-01-16T16:56:38;11.35;;;8.40;;
33160;SDS011;19522;45.656;11.302;2023-01-16T16:59:14;11.55;;;8.30;;
33160;SDS011;19522;45.656;11.302;2023-01-16T17:01:42;10.85;;;8.52;;
33160;SDS011;19522;45.656;11.302;2023-01-16T17:04:12;14.32;;;11.00;;
33160;SDS011;19522;45.656;11.302;2023-01-16T17:06:42;13.05;;;10.85;;
33160;SDS011;19522;45.656;11.302;2023-01-16T17:09:11;14.75;;;10.95;;
33160;SDS011;19522;45.656;11.302;2023-01-16T17:11:39;12.88;;;10.25;;
33160;SDS011;19522;45.656;11.302;2023-01-16T17:14:05;13.20;;;9.75;;
33160;SDS011;19522;45.656;11.302;2023-01-16T17:16:31;17.55;;;12.38;;
33160;SDS011;19522;45.656;11.302;2023-01-16T17:18:59;16.35;;;12.85;;
33160;SDS011;19522;45.656;11.302;2023-01-16T17:21:27;15.20;;;10.98;;
33160;SDS011;19522;45.656;11.302;2023-01-16T17:23:52;15.93;;;11.73;;
33160;SDS011;19522;45.656;11.302;2023-01-16T17:26:18;16.10;;;10.77;;
33160;SDS011;19522;45.656;11.302;2023-01-16T17:28:43;13.90;;;10.90;;
33160;SDS011;19522;45.656;11.302;2023-01-16T17:31:26;13.25;;;10.00;;
33160;SDS011;19522;45.656;11.302;2023-01-16T17:33:52;13.25;;;10.57;;
33160;SDS011;19522;45.656;11.302;2023-01-16T17:36:23;14.27;;;10.25;;
33160;SDS011;19522;45.656;11.302;2023-01-16T17:38:49;15.40;;;11.05;;
33160;SDS011;19522;45.656;11.302;2023-01-16T17:41:16;15.63;;;10.20;;
33160;SDS011;19522;45.656;11.302;2023-01-16T17:44:04;13.57;;;8.82;;
33160;SDS011;19522;45.656;11.302;2023-01-16T17:46:52;11.93;;;9.15;;
33160;SDS011;19522;45.656;11.302;2023-01-16T17:49:17;17.50;;;12.13;;
33160;SDS011;19522;45.656;11.302;2023-01-16T17:51:43;16.02;;;12.20;;
33160;SDS011;19522;45.656;11.302;2023-01-16T17:54:09;16.73;;;12.25;;
33160;SDS011;19522;45.656;11.302;2023-01-16T17:56:54;15.65;;;11.65;;